Time;durP1;ratioP1;P1;durP2;ratioP2;P2;SDS_P1;SDS_P2;PMS_P1;PMS_P2;Temp;Humidity;BMP_temperature;BMP_pressure;BME280_temperature;BME280_humidity;BME280_pressure;Samples;Min_cycle;Max_cycle;Signal;HPM_P1;HPM_P2
2022/04/04 00:02:07;;;;;;;47.40;22.65;;;-1.50;99.90;;;;;;5113871;28;20024;-74
2022/04/04 00:04:33;;;;;;;50.33;24.95;;;-1.50;99.90;;;;;;5115284;28;20015;-72
2022/04/04 00:07:02;;;;;;;59.83;28.08;;;-1.60;99.90;;;;;;5115096;28;20024;-71
2022/04/04 00:09:29;;;;;;;47.33;25.00;;;-1.60;99.90;;;;;;5114874;28;20160;-72
2022/04/04 00:11:55;;;;;;;45.83;23.40;;;-1.60;99.90;;;;;;5115057;28;20059;-73
2022/04/04 00:14:21;;;;;;;52.05;25.13;;;-1.60;99.90;;;;;;5115031;28;20415;-74
2022/04/04 00:16:47;;;;;;;53.92;25.92;;;-1.60;99.90;;;;;;5114835;28;20089;-71
2022/04/04 00:19:14;;;;;;;55.25;24.73;;;-1.60;99.90;;;;;;5114819;28;20054;-72
2022/04/04 00:21:41;;;;;;;53.92;26.58;;;-1.60;99.90;;;;;;5114756;28;20051;-74
2022/04/04 00:24:07;;;;;;;51.28;26.15;;;-1.60;99.90;;;;;;5113481;28;20031;-72
2022/04/04 00:26:33;;;;;;;54.13;26.02;;;-1.60;99.90;;;;;;5113461;28;20024;-71
2022/04/04 00:28:58;;;;;;;54.22;27.92;;;-1.70;99.90;;;;;;5114470;28;20020;-73
2022/04/04 00:31:24;;;;;;;49.65;27.60;;;-1.70;99.90;;;;;;5114243;28;20051;-72
2022/04/04 00:33:49;;;;;;;50.17;27.02;;;-1.60;99.90;;;;;;5114617;28;20088;-72
2022/04/04 00:36:15;;;;;;;56.60;26.25;;;-1.70;99.90;;;;;;5113337;28;20079;-71
2022/04/04 00:38:41;;;;;;;102.45;42.33;;;-1.60;99.90;;;;;;5113368;28;20016;-74
2022/04/04 00:41:13;;;;;;;325.27;123.50;;;-1.70;99.90;;;;;;5114550;28;20057;-73
2022/04/04 00:43:39;;;;;;;522.40;227.15;;;-1.70;99.90;;;;;;5113258;28;20043;-71
2022/04/04 00:46:05;;;;;;;123.55;54.47;;;-1.70;99.90;;;;;;5113641;28;20048;-71
2022/04/04 00:48:31;;;;;;;78.97;36.35;;;-1.70;99.90;;;;;;5114531;28;20414;-72
2022/04/04 00:50:57;;;;;;;65.95;29.83;;;-1.70;99.90;;;;;;5114405;28;20130;-73
2022/04/04 00:53:24;;;;;;;52.80;28.90;;;-1.70;99.90;;;;;;5114476;28;20023;-71
2022/04/04 00:55:50;;;;;;;54.13;26.88;;;-1.60;99.90;;;;;;5114331;28;20043;-73
2022/04/04 00:58:19;;;;;;;57.85;26.65;;;-1.60;99.90;;;;;;5113155;28;20015;-72
2022/04/04 01:00:47;;;;;;;49.67;25.80;;;-1.60;99.90;;;;;;5114283;28;20019;-71
2022/04/04 01:03:14;;;;;;;53.03;26.27;;;-1.60;99.90;;;;;;5112711;28;20481;-74
2022/04/04 01:05:40;;;;;;;48.90;26.45;;;-1.70;99.90;;;;;;5114251;28;20035;-71
2022/04/04 01:08:05;;;;;;;50.22;26.67;;;-1.70;99.90;;;;;;5114029;28;20024;-71
2022/04/04 01:10:31;;;;;;;64.32;27.52;;;-1.70;99.90;;;;;;5114070;28;20034;-72
2022/04/04 01:12:57;;;;;;;55.85;29.02;;;-1.70;99.90;;;;;;5114293;28;20392;-72
2022/04/04 01:15:25;;;;;;;61.40;29.05;;;-1.70;99.90;;;;;;5114132;28;20019;-72
2022/04/04 01:17:52;;;;;;;54.08;27.23;;;-1.70;99.90;;;;;;5114102;28;20039;-71
2022/04/04 01:20:18;;;;;;;54.15;26.95;;;-1.70;99.90;;;;;;5114152;28;20046;-73
2022/04/04 01:22:50;;;;;;;54.75;27.23;;;-1.70;99.90;;;;;;5113985;28;20465;-72
2022/04/04 01:25:22;;;;;;;49.70;24.60;;;-1.70;99.90;;;;;;5114045;28;20046;-72
2022/04/04 01:27:47;;;;;;;54.42;27.33;;;-1.70;99.90;;;;;;5113912;28;20020;-71
2022/04/04 01:30:13;;;;;;;58.95;27.05;;;-1.70;99.90;;;;;;5113805;28;20030;-72
2022/04/04 01:32:39;;;;;;;57.80;27.80;;;-1.70;99.90;;;;;;5113756;28;20177;-74
2022/04/04 01:35:05;;;;;;;48.30;26.10;;;-1.70;99.90;;;;;;5113849;28;20098;-74
2022/04/04 01:37:31;;;;;;;41.95;24.00;;;-1.80;99.90;;;;;;5112397;28;20047;-74
2022/04/04 01:39:58;;;;;;;51.60;25.77;;;-1.80;99.90;;;;;;5113357;28;20020;-75
2022/04/04 01:42:24;;;;;;;44.17;23.55;;;-1.80;99.90;;;;;;5113765;28;20024;-72
2022/04/04 01:44:50;;;;;;;47.22;24.55;;;-1.80;99.90;;;;;;5113770;28;20034;-74
2022/04/04 01:47:16;;;;;;;43.72;23.52;;;-1.80;99.90;;;;;;5113772;28;20033;-74
2022/04/04 01:49:41;;;;;;;40.63;23.60;;;-1.90;99.90;;;;;;5112466;28;20467;-74
2022/04/04 01:52:07;;;;;;;37.63;22.95;;;-1.90;99.90;;;;;;5113784;28;20058;-73
2022/04/04 01:54:33;;;;;;;42.55;22.58;;;-1.90;99.90;;;;;;5113711;28;20045;-74
2022/04/04 01:56:58;;;;;;;41.80;21.40;;;-1.90;99.90;;;;;;5113611;28;20032;-73
2022/04/04 01:59:24;;;;;;;47.13;22.58;;;-1.90;99.90;;;;;;5112482;28;20020;-74
2022/04/04 02:01:49;;;;;;;40.78;22.00;;;-1.90;99.90;;;;;;5113492;28;20503;-71
2022/04/04 02:04:15;;;;;;;47.72;23.40;;;-1.90;99.90;;;;;;5113737;28;20052;-73
2022/04/04 02:06:40;;;;;;;40.47;21.20;;;-1.90;99.90;;;;;;5113549;28;20020;-71
2022/04/04 02:09:07;;;;;;;49.72;22.02;;;-1.90;99.90;;;;;;5112248;28;20027;-73
2022/04/04 02:11:32;;;;;;;48.22;24.00;;;-1.90;99.90;;;;;;5113536;28;20023;-74
2022/04/04 02:13:58;;;;;;;39.20;22.33;;;-1.90;99.90;;;;;;5113456;28;20072;-72
2022/04/04 02:16:25;;;;;;;41.80;22.85;;;-1.90;99.90;;;;;;5113407;28;20038;-71
2022/04/04 02:18:50;;;;;;;41.60;22.33;;;-1.90;99.90;;;;;;5113495;28;20024;-74
2022/04/04 02:21:16;;;;;;;40.45;22.38;;;-1.90;99.90;;;;;;5113367;28;20458;-74
2022/04/04 02:23:42;;;;;;;46.45;24.13;;;-1.90;99.90;;;;;;5113369;28;20016;-72
2022/04/04 02:26:07;;;;;;;48.03;23.70;;;-1.90;99.90;;;;;;5113440;28;20033;-71
2022/04/04 02:28:33;;;;;;;49.42;23.85;;;-1.90;99.90;;;;;;5113395;28;20095;-74
2022/04/04 02:31:00;;;;;;;45.65;22.67;;;-1.90;99.90;;;;;;5113145;28;20051;-71
2022/04/04 02:33:26;;;;;;;43.63;23.65;;;-1.90;99.90;;;;;;5113479;28;20468;-71
2022/04/04 02:35:52;;;;;;;49.70;24.55;;;-1.90;99.90;;;;;;5113201;28;20039;-74
2022/04/04 02:38:21;;;;;;;43.80;22.23;;;-1.90;99.90;;;;;;5111931;28;20383;-74
2022/04/04 02:40:46;;;;;;;40.75;23.35;;;-1.90;99.90;;;;;;5110489;28;20024;-74
2022/04/04 02:43:12;;;;;;;44.30;23.65;;;-1.90;99.90;;;;;;5113245;28;20068;-74
2022/04/04 02:45:38;;;;;;;41.33;22.90;;;-1.90;99.90;;;;;;5113002;28;20495;-74
2022/04/04 02:48:04;;;;;;;51.17;24.83;;;-2.00;99.90;;;;;;5113164;28;20389;-75
2022/04/04 02:50:30;;;;;;;46.90;23.45;;;-2.00;99.90;;;;;;5113051;28;20072;-72
2022/04/04 02:52:56;;;;;;;40.05;21.70;;;-2.00;99.90;;;;;;5115098;28;20023;-71
2022/04/04 02:58:06;;;;;;;39.22;21.35;;;-2.00;99.90;;;;;;5116965;28;20093;-72
2022/04/04 03:00:31;;;;;;;39.35;22.85;;;-2.00;99.90;;;;;;5116645;28;20027;-73
2022/04/04 03:02:57;;;;;;;40.78;22.23;;;-2.00;99.90;;;;;;5116656;28;20380;-72
2022/04/04 03:05:24;;;;;;;45.15;21.13;;;-2.10;99.90;;;;;;5116579;28;20429;-72
2022/04/04 03:07:51;;;;;;;43.35;22.40;;;-2.10;99.90;;;;;;5115187;28;20026;-71
2022/04/04 03:10:16;;;;;;;44.13;24.63;;;-2.20;99.90;;;;;;5116496;28;20116;-72
2022/04/04 03:13:02;;;;;;;38.45;21.02;;;-2.30;99.90;;;;;;5116451;28;20027;-72
2022/04/04 03:15:28;;;;;;;38.45;21.25;;;-2.30;99.90;;;;;;5116117;28;20020;-72
2022/04/04 03:17:55;;;;;;;41.08;22.05;;;-2.30;99.90;;;;;;5116288;28;20443;-71
2022/04/04 03:20:24;;;;;;;32.65;20.63;;;-2.30;99.90;;;;;;5115005;28;20019;-72
2022/04/04 03:22:55;;;;;;;46.10;22.73;;;-2.30;99.90;;;;;;5114872;28;20080;-71
2022/04/04 03:25:22;;;;;;;34.53;21.27;;;-2.40;99.90;;;;;;5114867;28;20043;-74
2022/04/04 03:27:48;;;;;;;40.88;23.58;;;-2.50;99.90;;;;;;5116141;28;20024;-74
2022/04/04 03:30:18;;;;;;;46.75;25.27;;;-2.50;99.90;;;;;;5114814;28;20392;-74
2022/04/04 03:32:47;;;;;;;43.67;21.42;;;-2.60;99.90;;;;;;5115921;28;20480;-71
2022/04/04 03:35:17;;;;;;;47.33;23.25;;;-2.70;99.90;;;;;;5115958;28;20020;-73
2022/04/04 03:37:46;;;;;;;41.33;23.35;;;-2.70;99.90;;;;;;5115906;28;20084;-72
2022/04/04 03:40:13;;;;;;;43.42;23.42;;;-2.70;99.90;;;;;;5115910;28;20028;-74
2022/04/04 03:42:43;;;;;;;45.67;23.70;;;-2.80;99.90;;;;;;5115934;28;20019;-71
2022/04/04 03:45:14;;;;;;;46.38;24.77;;;-2.80;99.90;;;;;;5115926;28;20031;-74
2022/04/04 03:47:41;;;;;;;47.10;24.77;;;-2.90;99.90;;;;;;5115878;28;20020;-71
2022/04/04 03:50:08;;;;;;;50.72;25.33;;;-2.90;99.90;;;;;;5115728;28;20023;-72
2022/04/04 03:52:34;;;;;;;43.65;24.73;;;-3.00;99.90;;;;;;5115519;28;20016;-73
2022/04/04 03:55:00;;;;;;;39.13;24.50;;;-3.00;99.90;;;;;;5115642;27;20102;-74
2022/04/04 03:57:27;;;;;;;41.25;23.73;;;-3.00;99.90;;;;;;5115523;28;20039;-72
2022/04/04 03:59:53;;;;;;;39.70;24.58;;;-3.10;99.90;;;;;;5115278;28;20045;-72
2022/04/04 04:02:18;;;;;;;46.00;22.85;;;-3.10;99.90;;;;;;5114880;28;20039;-73
2022/04/04 04:04:44;;;;;;;41.92;22.30;;;-3.10;99.90;;;;;;5114117;28;20016;-71
2022/04/04 04:07:16;;;;;;;46.35;24.48;;;-3.10;99.90;;;;;;5114082;28;20023;-73
2022/04/04 04:09:42;;;;;;;39.03;21.17;;;-3.10;99.90;;;;;;5115414;28;20023;-71
2022/04/04 04:12:10;;;;;;;30.40;18.38;;;-3.10;99.90;;;;;;5114021;28;20472;-69
2022/04/04 04:14:35;;;;;;;27.60;17.48;;;-3.10;99.90;;;;;;5114889;28;20011;-69
2022/04/04 04:17:02;;;;;;;30.10;17.77;;;-3.10;99.90;;;;;;5113782;28;20118;-71
2022/04/04 04:22:13;;;;;;;85.70;38.13;;;-3.00;99.90;;;;;;5115148;28;20115;-69
2022/04/04 04:24:39;;;;;;;86.22;37.83;;;-3.00;99.90;;;;;;5114910;28;20034;-72
2022/04/04 04:27:05;;;;;;;44.40;23.65;;;-3.00;99.90;;;;;;5114794;28;20023;-69
2022/04/04 04:29:30;;;;;;;40.42;20.60;;;-3.00;99.90;;;;;;5113667;28;20122;-71
2022/04/04 04:31:56;;;;;;;38.28;20.80;;;-3.00;99.90;;;;;;5114760;28;20087;-69
2022/04/04 04:34:21;;;;;;;37.53;20.50;;;-3.00;99.90;;;;;;5114865;28;20062;-69
2022/04/04 04:36:47;;;;;;;35.80;21.00;;;-3.00;99.90;;;;;;5114667;28;20598;-69
2022/04/04 04:39:12;;;;;;;47.47;24.75;;;-3.00;99.90;;;;;;5113485;28;20469;-70
2022/04/04 04:41:38;;;;;;;54.60;24.70;;;-3.00;99.90;;;;;;5114697;28;20028;-72
2022/04/04 04:44:05;;;;;;;40.80;19.52;;;-2.90;99.90;;;;;;5113464;28;20020;-69
2022/04/04 04:46:31;;;;;;;35.90;18.00;;;-2.90;99.90;;;;;;5114529;28;20023;-72
2022/04/04 04:48:57;;;;;;;38.03;18.10;;;-2.80;99.90;;;;;;5113094;28;20161;-69
2022/04/04 04:51:23;;;;;;;29.80;16.83;;;-2.80;99.90;;;;;;5114525;28;20095;-72
2022/04/04 04:53:49;;;;;;;32.38;17.45;;;-2.80;99.90;;;;;;5114362;28;20027;-72
2022/04/04 04:56:14;;;;;;;23.08;16.50;;;-2.70;99.90;;;;;;5114357;28;20538;-69
2022/04/04 04:58:40;;;;;;;23.75;15.57;;;-2.70;99.90;;;;;;5114440;28;20491;-71
2022/04/04 05:01:06;;;;;;;28.77;15.75;;;-2.60;99.90;;;;;;5114263;28;20365;-71
2022/04/04 05:03:31;;;;;;;24.98;15.40;;;-2.60;99.90;;;;;;5113051;28;20032;-72
2022/04/04 05:05:57;;;;;;;26.75;15.20;;;-2.50;99.90;;;;;;5113810;28;20035;-69
2022/04/04 05:08:23;;;;;;;26.08;14.00;;;-2.40;99.90;;;;;;5113784;28;20030;-71
2022/04/04 05:10:48;;;;;;;22.23;14.88;;;-2.40;99.90;;;;;;5112904;28;20478;-69
2022/04/04 05:13:14;;;;;;;29.10;16.85;;;-2.30;99.90;;;;;;5091390;28;20032;-71
2022/04/04 05:15:40;;;;;;;28.63;16.08;;;-2.20;99.90;;;;;;5091049;28;20066;-72
2022/04/04 05:18:06;;;;;;;24.88;15.50;;;-2.20;99.90;;;;;;5092716;28;20040;-72
2022/04/04 05:20:32;;;;;;;27.08;15.90;;;-2.10;99.90;;;;;;5092451;28;20414;-73
2022/04/04 05:22:57;;;;;;;28.65;16.65;;;-2.00;99.90;;;;;;5092315;28;20034;-72
2022/04/04 05:25:23;;;;;;;25.85;16.15;;;-2.00;99.90;;;;;;5093030;28;20035;-74
2022/04/04 05:27:50;;;;;;;31.73;17.30;;;-2.10;99.90;;;;;;5090830;28;20035;-73
2022/04/04 05:30:16;;;;;;;26.83;15.25;;;-2.00;99.90;;;;;;5090734;28;20017;-74
2022/04/04 05:32:43;;;;;;;29.27;15.80;;;-1.90;99.90;;;;;;5092029;28;20071;-71
2022/04/04 05:35:12;;;;;;;27.35;15.88;;;-1.90;99.90;;;;;;5098773;28;20089;-74
2022/04/04 05:37:38;;;;;;;26.42;16.98;;;-1.80;99.90;;;;;;5111429;28;20058;-74
2022/04/04 05:40:05;;;;;;;27.70;15.70;;;-1.90;99.90;;;;;;5111774;28;20015;-74
2022/04/04 05:42:31;;;;;;;21.90;14.23;;;-1.80;99.90;;;;;;5111091;28;20118;-74
2022/04/04 05:44:57;;;;;;;28.83;16.05;;;-1.80;99.90;;;;;;5110898;28;20024;-74
2022/04/04 05:47:22;;;;;;;29.75;16.38;;;-1.70;99.90;;;;;;5111975;28;20032;-72
2022/04/04 05:49:48;;;;;;;23.25;14.68;;;-1.70;99.90;;;;;;5112547;28;20139;-73
2022/04/04 05:52:15;;;;;;;30.85;16.33;;;-1.70;99.90;;;;;;5112680;28;20084;-74
2022/04/04 05:54:54;;;;;;;25.27;14.00;;;-1.60;99.90;;;;;;5113174;28;20473;-73
2022/04/04 05:57:24;;;;;;;23.67;15.23;;;-1.40;99.90;;;;;;5111803;28;20043;-74
2022/04/04 05:59:50;;;;;;;30.80;16.42;;;-1.30;99.90;;;;;;5110481;28;20115;-74
2022/04/04 06:02:16;;;;;;;25.15;14.73;;;-1.10;99.90;;;;;;5112400;28;20048;-74
2022/04/04 06:04:42;;;;;;;30.23;14.88;;;-1.00;99.90;;;;;;5110756;28;20417;-75
2022/04/04 06:07:08;;;;;;;22.38;15.00;;;-0.90;99.90;;;;;;5110581;28;20020;-72
2022/04/04 06:09:33;;;;;;;25.67;14.65;;;-0.80;99.90;;;;;;5109717;28;20019;-72
2022/04/04 06:11:59;;;;;;;24.98;15.68;;;-0.70;99.90;;;;;;5110439;28;20477;-72
2022/04/04 06:14:25;;;;;;;28.02;17.48;;;-0.70;99.90;;;;;;5110132;28;20023;-73
2022/04/04 06:16:50;;;;;;;31.23;17.23;;;-0.60;99.90;;;;;;5110023;28;20028;-74
2022/04/04 06:19:16;;;;;;;30.25;18.00;;;-0.60;99.90;;;;;;5110874;28;20028;-72
2022/04/04 06:21:42;;;;;;;28.02;16.27;;;-0.60;99.90;;;;;;5112506;28;20426;-72
2022/04/04 06:24:08;;;;;;;29.35;16.52;;;-0.50;99.90;;;;;;5112262;28;20043;-72
2022/04/04 06:26:34;;;;;;;26.25;15.57;;;-0.20;99.90;;;;;;5115278;28;20016;-73
2022/04/04 06:28:59;;;;;;;37.28;19.48;;;0.00;99.20;;;;;;5116038;28;20027;-74
2022/04/04 06:31:25;;;;;;;23.60;15.43;;;0.40;97.20;;;;;;5115672;28;20055;-71
2022/04/04 06:33:51;;;;;;;27.60;16.20;;;0.50;93.10;;;;;;5116621;28;20376;-74
2022/04/04 06:36:16;;;;;;;28.23;15.13;;;0.70;90.90;;;;;;5116436;28;20495;-75
2022/04/04 06:38:42;;;;;;;21.45;13.80;;;0.80;87.90;;;;;;5116776;27;20030;-74
2022/04/04 06:41:08;;;;;;;25.55;13.85;;;1.00;84.40;;;;;;5115589;28;20020;-75
2022/04/04 06:43:33;;;;;;;19.48;12.68;;;1.10;81.50;;;;;;5116900;28;20023;-75
2022/04/04 06:46:00;;;;;;;21.38;13.13;;;1.00;79.80;;;;;;5115185;28;20473;-75
2022/04/04 06:48:26;;;;;;;21.17;12.35;;;1.00;78.90;;;;;;5115303;28;20020;-75
2022/04/04 06:50:52;;;;;;;21.10;13.02;;;0.90;77.70;;;;;;5115453;28;20019;-75
2022/04/04 06:53:21;;;;;;;18.67;12.70;;;0.80;77.50;;;;;;5116587;27;20068;-75
2022/04/04 06:55:47;;;;;;;19.60;11.85;;;0.70;78.80;;;;;;5113245;28;20026;-74
2022/04/04 06:58:13;;;;;;;19.50;12.15;;;0.60;79.40;;;;;;5113206;28;20051;-74
2022/04/04 07:00:39;;;;;;;19.13;13.35;;;0.40;78.70;;;;;;5113111;28;20046;-73
2022/04/04 07:03:07;;;;;;;19.00;13.05;;;0.50;78.50;;;;;;5114312;28;20391;-75
2022/04/04 07:05:33;;;;;;;18.67;12.82;;;0.60;78.30;;;;;;5112855;28;20530;-75
2022/04/04 07:07:58;;;;;;;15.98;11.48;;;0.80;77.60;;;;;;5114427;28;20020;-74
2022/04/04 07:10:24;;;;;;;13.60;10.68;;;0.90;75.90;;;;;;5115798;28;20027;-74
2022/04/04 07:12:50;;;;;;;18.23;11.27;;;1.30;75.80;;;;;;5116256;28;20016;-73
2022/04/04 07:15:15;;;;;;;16.70;10.70;;;1.40;73.50;;;;;;5116084;28;20072;-75
2022/04/04 07:17:43;;;;;;;19.08;11.05;;;1.40;72.30;;;;;;5116037;28;20042;-74
2022/04/04 07:20:10;;;;;;;18.30;11.63;;;1.30;71.60;;;;;;5114914;28;20053;-73
2022/04/04 07:22:37;;;;;;;20.40;10.65;;;1.10;71.60;;;;;;5114673;28;20028;-75
2022/04/04 07:25:04;;;;;;;14.25;10.18;;;1.10;71.20;;;;;;5115816;28;20028;-75
2022/04/04 07:27:30;;;;;;;19.33;12.18;;;1.10;71.20;;;;;;5115922;28;20531;-74
2022/04/04 07:29:57;;;;;;;15.43;11.23;;;1.40;72.40;;;;;;5115989;28;20376;-75
2022/04/04 07:32:22;;;;;;;15.90;11.10;;;1.50;70.70;;;;;;5115831;28;20118;-73
2022/04/04 07:34:48;;;;;;;15.38;10.05;;;1.60;70.60;;;;;;5115636;28;20425;-73
2022/04/04 07:37:14;;;;;;;17.02;11.48;;;1.60;69.00;;;;;;5115013;28;20036;-73
2022/04/04 07:39:40;;;;;;;20.85;11.57;;;1.60;69.00;;;;;;5115882;28;20022;-75
2022/04/04 07:42:06;;;;;;;19.05;11.05;;;1.50;68.80;;;;;;5114420;28;20477;-73
2022/04/04 07:44:31;;;;;;;22.05;11.65;;;1.50;69.20;;;;;;5114294;28;20023;-73
2022/04/04 07:46:57;;;;;;;19.08;11.93;;;1.50;69.90;;;;;;5114096;28;20450;-73
2022/04/04 07:49:23;;;;;;;19.50;13.57;;;1.50;70.40;;;;;;5115699;28;20069;-75
2022/04/04 07:51:49;;;;;;;14.48;11.02;;;1.50;71.00;;;;;;5115525;28;20026;-75
2022/04/04 07:54:14;;;;;;;15.60;11.05;;;1.30;70.70;;;;;;5115516;28;20043;-73
2022/04/04 07:56:40;;;;;;;18.35;11.05;;;1.20;71.70;;;;;;5115070;28;20039;-74
2022/04/04 07:59:06;;;;;;;18.40;11.60;;;0.90;72.90;;;;;;5115455;28;20043;-74
2022/04/04 08:01:32;;;;;;;18.15;12.30;;;0.80;74.80;;;;;;5115372;28;20061;-73
2022/04/04 08:03:57;;;;;;;22.33;12.88;;;0.50;82.20;;;;;;5115336;28;20020;-75
2022/04/04 08:06:23;;;;;;;22.00;15.25;;;0.30;91.50;;;;;;5113696;28;20034;-73
2022/04/04 08:08:49;;;;;;;25.25;15.20;;;0.10;99.90;;;;;;5115287;28;20103;-74
2022/04/04 08:11:14;;;;;;;22.42;16.50;;;-0.10;99.90;;;;;;5115292;28;20027;-74
2022/04/04 08:13:44;;;;;;;26.70;16.75;;;-0.30;99.90;;;;;;5115217;28;20020;-75
2022/04/04 08:16:10;;;;;;;25.77;16.42;;;-0.30;99.90;;;;;;5114703;28;20027;-74
2022/04/04 08:18:35;;;;;;;25.67;16.00;;;-0.30;99.90;;;;;;5115287;28;20020;-74
2022/04/04 08:21:01;;;;;;;28.98;18.38;;;-0.20;99.90;;;;;;5113907;28;20459;-74
2022/04/04 08:23:29;;;;;;;25.88;16.23;;;-0.10;99.90;;;;;;5115095;28;20027;-72
2022/04/04 08:25:57;;;;;;;27.50;17.25;;;-0.10;99.90;;;;;;5113766;28;20370;-75
2022/04/04 08:28:23;;;;;;;29.48;17.60;;;0.10;99.90;;;;;;5113947;28;20016;-75
2022/04/04 08:30:50;;;;;;;29.92;17.83;;;0.20;99.90;;;;;;5114903;28;20374;-75
2022/04/04 08:33:16;;;;;;;32.10;18.60;;;0.40;99.90;;;;;;5113626;28;20051;-75
2022/04/04 08:35:42;;;;;;;27.10;18.05;;;0.50;99.90;;;;;;5114793;28;20073;-73
2022/04/04 08:38:08;;;;;;;29.60;16.70;;;0.70;99.90;;;;;;5113726;28;20401;-75
2022/04/04 08:40:35;;;;;;;29.05;16.77;;;0.80;99.90;;;;;;5114917;28;20099;-74
2022/04/04 08:43:02;;;;;;;26.08;16.17;;;0.90;99.90;;;;;;5114845;28;20114;-72
2022/04/04 08:45:28;;;;;;;25.55;16.08;;;1.20;99.90;;;;;;5113491;28;20027;-75
2022/04/04 08:47:55;;;;;;;23.85;16.17;;;1.30;99.90;;;;;;5114708;28;20032;-74
2022/04/04 08:50:21;;;;;;;24.63;15.20;;;1.40;99.90;;;;;;5113466;28;20426;-73
2022/04/04 08:52:48;;;;;;;24.35;15.23;;;1.70;99.90;;;;;;5114642;28;20034;-70
2022/04/04 08:55:15;;;;;;;22.15;14.40;;;1.80;99.90;;;;;;5114489;28;20090;-72
2022/04/04 08:57:41;;;;;;;18.95;13.18;;;2.20;99.90;;;;;;5113206;28;20039;-72
2022/04/04 09:00:10;;;;;;;23.88;14.07;;;2.30;92.20;;;;;;5114515;28;20027;-71
2022/04/04 09:02:36;;;;;;;19.25;14.00;;;2.20;86.60;;;;;;5114415;28;20036;-70
2022/04/04 09:05:04;;;;;;;25.15;15.32;;;2.30;87.40;;;;;;5114550;28;20020;-73
2022/04/04 09:07:29;;;;;;;20.75;13.45;;;2.50;89.40;;;;;;5114396;28;20059;-72
2022/04/04 09:09:55;;;;;;;21.35;12.88;;;2.50;83.10;;;;;;5114408;28;20473;-73
2022/04/04 09:12:23;;;;;;;19.73;13.18;;;2.70;82.60;;;;;;5114311;28;20434;-70
2022/04/04 09:14:57;;;;;;;22.35;14.77;;;2.80;81.20;;;;;;5114191;28;20024;-73
2022/04/04 09:17:32;;;;;;;27.10;17.15;;;3.10;79.90;;;;;;5114163;28;20110;-71
2022/04/04 09:19:58;;;;;;;16.10;11.70;;;3.20;75.40;;;;;;5112976;28;20030;-73
2022/04/04 09:22:25;;;;;;;27.40;17.23;;;3.30;74.90;;;;;;5114008;28;20016;-73
2022/04/04 09:24:52;;;;;;;16.13;11.90;;;3.40;72.90;;;;;;5114190;28;20015;-73
2022/04/04 09:27:39;;;;;;;18.63;11.23;;;3.50;72.60;;;;;;5112056;28;20015;-71
2022/04/04 09:30:07;;;;;;;17.45;11.60;;;3.70;71.00;;;;;;5113938;28;20043;-73
2022/04/04 09:32:46;;;;;;;15.15;9.85;;;3.80;69.70;;;;;;5113012;28;20385;-72
2022/04/04 09:35:18;;;;;;;14.05;9.90;;;3.90;67.60;;;;;;5113051;28;20030;-71
2022/04/04 09:37:45;;;;;;;16.50;10.55;;;3.80;66.50;;;;;;5113893;28;20031;-73
2022/04/04 09:40:12;;;;;;;21.85;9.88;;;4.10;68.10;;;;;;5113937;28;20491;-74
2022/04/04 09:42:38;;;;;;;12.13;9.15;;;4.30;67.30;;;;;;5113898;28;20450;-72
2022/04/04 09:45:09;;;;;;;15.32;9.82;;;4.50;66.90;;;;;;5113954;28;20019;-74
2022/04/04 09:47:54;;;;;;;12.63;8.57;;;4.60;64.90;;;;;;5113956;28;20392;-72
2022/04/04 09:50:45;;;;;;;13.80;8.57;;;4.40;63.60;;;;;;5113848;28;20023;-73
2022/04/04 09:53:17;;;;;;;13.18;8.88;;;4.30;64.50;;;;;;5113984;28;20062;-72
2022/04/04 09:55:45;;;;;;;15.35;10.43;;;4.20;64.40;;;;;;5112481;28;20026;-72
2022/04/04 09:58:14;;;;;;;14.10;10.55;;;4.10;64.30;;;;;;5113844;28;20104;-72
2022/04/04 10:00:42;;;;;;;17.25;11.35;;;3.80;63.70;;;;;;5115322;28;20023;-73
2022/04/04 10:03:12;;;;;;;14.90;10.55;;;3.60;62.80;;;;;;5117998;28;20024;-72
2022/04/04 10:05:41;;;;;;;19.50;11.18;;;3.50;63.20;;;;;;5116686;28;20024;-73
2022/04/04 10:08:07;;;;;;;17.85;11.65;;;3.70;64.10;;;;;;5118206;28;20139;-72
2022/04/04 10:10:33;;;;;;;17.95;11.30;;;3.80;64.40;;;;;;5117501;28;20019;-73
2022/04/04 10:12:59;;;;;;;15.13;10.02;;;4.10;66.20;;;;;;5117762;28;20076;-72
2022/04/04 10:15:26;;;;;;;16.33;10.65;;;4.30;66.40;;;;;;5116472;28;20020;-75
2022/04/04 10:17:53;;;;;;;16.23;10.98;;;4.60;65.90;;;;;;5116335;28;20480;-73
2022/04/04 10:20:20;;;;;;;13.05;9.85;;;4.40;63.40;;;;;;5117594;28;20026;-73
2022/04/04 10:22:49;;;;;;;13.85;9.23;;;4.50;63.40;;;;;;5117441;28;20050;-72
2022/04/04 10:25:18;;;;;;;12.65;10.23;;;4.60;64.10;;;;;;5117526;28;20051;-72
2022/04/04 10:27:47;;;;;;;14.68;10.75;;;4.70;64.20;;;;;;5117414;28;20103;-74
2022/04/04 10:30:16;;;;;;;13.68;8.30;;;4.70;65.80;;;;;;5117500;28;20020;-72
2022/04/04 10:32:51;;;;;;;10.65;7.63;;;4.70;61.90;;;;;;5116009;28;20055;-73
2022/04/04 10:35:23;;;;;;;11.27;7.90;;;4.80;61.20;;;;;;5116919;28;20027;-72
2022/04/04 10:37:50;;;;;;;14.77;7.03;;;4.80;61.00;;;;;;5116863;28;20031;-73
2022/04/04 10:40:27;;;;;;;10.05;7.78;;;5.10;62.00;;;;;;5113424;28;20043;-72
2022/04/04 10:43:13;;;;;;;12.25;8.02;;;5.30;60.10;;;;;;5115268;28;20468;-72
2022/04/04 10:45:56;;;;;;;11.45;7.45;;;5.60;61.40;;;;;;5114043;27;20020;-72
2022/04/04 10:48:31;;;;;;;14.55;8.85;;;5.60;60.20;;;;;;5113259;28;20027;-72
2022/04/04 10:51:15;;;;;;;10.82;7.40;;;5.70;59.00;;;;;;5113796;28;20035;-72
2022/04/04 10:53:44;;;;;;;9.55;7.38;;;5.70;58.80;;;;;;5115885;28;20046;-72
2022/04/04 10:56:15;;;;;;;9.88;6.72;;;5.60;58.50;;;;;;5115324;27;20488;-72
2022/04/04 10:58:40;;;;;;;8.57;6.25;;;5.60;59.20;;;;;;5110621;28;20034;-72
2022/04/04 11:01:17;;;;;;;10.70;7.47;;;5.60;58.30;;;;;;5114892;27;20062;-72
2022/04/04 11:04:02;;;;;;;9.90;6.75;;;5.70;59.20;;;;;;5115595;28;20110;-72
2022/04/04 11:09:26;;;;;;;12.15;6.75;;;5.90;60.50;;;;;;5115824;28;20165;-73
2022/04/04 11:12:01;;;;;;;11.73;7.45;;;6.10;60.60;;;;;;5112845;28;20388;-73
2022/04/04 11:14:46;;;;;;;10.38;6.00;;;6.30;60.00;;;;;;5115345;28;20019;-73
2022/04/04 11:17:13;;;;;;;9.52;6.90;;;6.40;59.10;;;;;;5115128;28;20044;-73
2022/04/04 11:20:00;;;;;;;8.63;6.10;;;6.40;57.30;;;;;;5115487;28;20094;-72
2022/04/04 11:22:28;;;;;;;8.98;6.18;;;6.20;57.40;;;;;;5114038;28;20135;-72
2022/04/04 11:25:03;;;;;;;7.57;6.25;;;5.80;57.00;;;;;;5114635;28;20028;-72
2022/04/04 11:27:34;;;;;;;9.20;7.05;;;5.80;56.70;;;;;;5113844;28;20031;-72
2022/04/04 11:30:07;;;;;;;6.75;5.15;;;5.70;57.20;;;;;;5114057;28;20024;-72
2022/04/04 11:32:34;;;;;;;11.18;5.82;;;5.50;58.50;;;;;;5110595;28;20130;-73
2022/04/04 11:35:11;;;;;;;11.75;7.43;;;5.40;57.80;;;;;;5114827;28;20015;-72
2022/04/04 11:37:44;;;;;;;8.20;6.18;;;5.50;58.50;;;;;;5114886;28;20185;-72
2022/04/04 11:40:14;;;;;;;8.68;6.28;;;5.60;58.90;;;;;;5114685;28;20035;-72
2022/04/04 11:42:45;;;;;;;10.63;6.90;;;5.70;58.50;;;;;;5114140;28;20039;-72
2022/04/04 11:45:16;;;;;;;8.63;6.65;;;5.70;59.00;;;;;;5114897;28;20016;-72
2022/04/04 11:47:55;;;;;;;6.95;6.25;;;5.60;57.90;;;;;;5113302;28;20055;-72
2022/04/04 11:50:25;;;;;;;8.10;5.47;;;5.50;57.80;;;;;;5114849;28;20026;-72
2022/04/04 11:52:54;;;;;;;8.60;5.70;;;5.40;57.40;;;;;;5114292;28;20035;-72
2022/04/04 11:55:25;;;;;;;8.93;6.28;;;5.20;57.50;;;;;;5114674;28;20020;-72
2022/04/04 11:57:57;;;;;;;8.05;6.15;;;5.30;58.60;;;;;;5113487;28;20043;-72
2022/04/04 12:00:27;;;;;;;8.20;6.03;;;5.70;57.80;;;;;;5114565;28;20023;-72
2022/04/04 12:02:53;;;;;;;9.38;6.47;;;5.70;57.20;;;;;;5114046;27;20093;-73
2022/04/04 12:05:23;;;;;;;7.65;5.50;;;5.90;58.20;;;;;;5114452;28;20447;-72
2022/04/04 12:07:52;;;;;;;8.73;6.03;;;5.90;57.70;;;;;;5113963;27;20112;-73
2022/04/04 12:10:32;;;;;;;9.80;7.00;;;5.70;56.80;;;;;;5114509;28;20384;-72
2022/04/04 12:13:08;;;;;;;10.50;6.70;;;5.60;56.20;;;;;;5113401;27;20067;-72
2022/04/04 12:15:36;;;;;;;10.10;7.65;;;5.80;58.90;;;;;;5112945;28;20023;-72
2022/04/04 12:18:03;;;;;;;9.00;6.97;;;5.80;58.50;;;;;;5112566;27;20039;-72
2022/04/04 12:20:43;;;;;;;10.93;8.23;;;5.50;58.50;;;;;;5112669;28;20046;-72
2022/04/04 12:26:01;;;;;;;8.10;7.28;;;5.80;58.30;;;;;;5113188;28;20043;-72
2022/04/04 12:28:32;;;;;;;7.78;6.97;;;6.10;58.60;;;;;;5113946;27;20055;-72
2022/04/04 12:31:13;;;;;;;8.02;6.78;;;5.90;57.70;;;;;;5093040;28;20055;-72
2022/04/04 12:33:39;;;;;;;7.82;7.03;;;5.60;56.40;;;;;;5093532;28;20481;-70
2022/04/04 12:36:05;;;;;;;8.85;7.30;;;5.60;56.80;;;;;;5092913;28;20089;-71
2022/04/04 12:38:39;;;;;;;7.32;6.63;;;5.80;57.90;;;;;;5091891;28;20039;-71
2022/04/04 12:41:14;;;;;;;10.13;7.70;;;6.00;57.90;;;;;;5091239;28;20020;-71
2022/04/04 12:43:42;;;;;;;10.82;7.88;;;6.00;58.10;;;;;;5091862;28;20039;-71
2022/04/04 12:46:39;;;;;;;8.23;7.43;;;6.10;57.70;;;;;;5092905;28;20016;-72
2022/04/04 12:49:23;;;;;;;10.48;7.78;;;6.10;58.00;;;;;;5092583;28;20032;-72
2022/04/04 12:51:58;;;;;;;7.95;6.93;;;6.00;58.40;;;;;;5092905;28;20487;-72